createdAt,value
2022-08-09T00:01:15.366Z,14.70
2022-08-09T00:04:05.564Z,14.60
2022-08-09T00:06:32.163Z,14.50
2022-08-09T00:09:01.233Z,14.40
2022-08-09T00:12:03.854Z,14.30
2022-08-09T00:14:22.113Z,14.20
2022-08-09T00:17:04.790Z,14.10
2022-08-09T00:19:32.407Z,14.00
2022-08-09T00:22:03.671Z,14.00
2022-08-09T00:24:32.508Z,13.80
2022-08-09T00:27:01.329Z,13.70
2022-08-09T00:30:10.182Z,13.60
2022-08-09T00:32:26.781Z,13.50
2022-08-09T00:34:55.720Z,13.40
2022-08-09T00:37:24.061Z,13.30
2022-08-09T00:40:09.099Z,13.20
2022-08-09T00:44:15.691Z,13.20
2022-08-09T00:45:28.066Z,13.10
2022-08-09T00:47:55.657Z,13.20
2022-08-09T00:50:24.537Z,13.20
2022-08-09T00:52:56.252Z,13.20
2022-08-09T00:56:03.127Z,13.20
2022-08-09T00:58:14.503Z,13.20
2022-08-09T01:00:44.642Z,13.10
2022-08-09T01:03:28.443Z,13.00
2022-08-09T01:06:53.309Z,12.90
2022-08-09T01:09:56.616Z,12.80
2022-08-09T01:12:45.699Z,12.70
2022-08-09T01:15:19.916Z,12.60
2022-08-09T01:18:03.242Z,12.50
2022-08-09T01:21:17.185Z,12.50
2022-08-09T01:24:14.688Z,12.50
2022-08-09T01:27:09.715Z,12.50
2022-08-09T01:29:59.746Z,12.50
2022-08-09T01:32:36.994Z,12.50
2022-08-09T01:35:28.317Z,12.50
2022-08-09T01:38:15.425Z,12.60
2022-08-09T01:41:04.766Z,12.60
2022-08-09T01:43:50.422Z,12.60
2022-08-09T01:46:36.824Z,12.50
2022-08-09T01:49:17.594Z,12.40
2022-08-09T01:51:56.952Z,12.30
2022-08-09T01:54:32.794Z,12.30
2022-08-09T01:57:16.858Z,12.20
2022-08-09T01:59:52.032Z,12.10
2022-08-09T02:02:32.003Z,12.10
2022-08-09T02:05:15.114Z,12.10
2022-08-09T02:08:35.943Z,12.00
2022-08-09T02:10:55.771Z,12.00
2022-08-09T02:13:40.436Z,12.00
2022-08-09T02:16:12.393Z,11.90
2022-08-09T02:18:42.998Z,11.80
2022-08-09T02:21:22.168Z,11.80
2022-08-09T02:24:00.306Z,11.80
2022-08-09T02:26:34.690Z,11.70
2022-08-09T02:29:13.080Z,11.70
2022-08-09T02:31:50.838Z,11.70
2022-08-09T02:34:40.364Z,11.60
2022-08-09T02:37:15.582Z,11.50
2022-08-09T02:39:55.124Z,11.40
2022-08-09T02:42:35.446Z,11.40
2022-08-09T02:45:15.474Z,11.40
2022-08-09T02:47:57.999Z,11.40
2022-08-09T02:50:42.398Z,11.40
2022-08-09T02:53:26.648Z,11.40
2022-08-09T02:55:59.720Z,11.40
2022-08-09T02:58:36.877Z,11.40
2022-08-09T03:01:11.139Z,11.40
2022-08-09T03:04:17.258Z,11.40
2022-08-09T03:06:33.300Z,11.30
2022-08-09T03:09:02.386Z,11.30
2022-08-09T03:12:09.780Z,11.30
2022-08-09T03:14:22.088Z,11.30
2022-08-09T03:16:58.637Z,11.30
2022-08-09T03:19:58.002Z,11.30
2022-08-09T03:22:24.989Z,11.30
2022-08-09T03:25:06.266Z,11.20
2022-08-09T03:27:52.400Z,11.10
2022-08-09T03:30:29.706Z,11.00
2022-08-09T03:33:16.963Z,10.90
2022-08-09T03:36:12.303Z,11.00
2022-08-09T03:38:42.986Z,11.00
2022-08-09T03:41:18.470Z,11.10
2022-08-09T03:44:03.135Z,11.10
2022-08-09T03:46:36.553Z,11.20
2022-08-09T03:49:08.214Z,11.20
2022-08-09T03:51:58.640Z,11.30
2022-08-09T03:57:18.163Z,11.30
2022-08-09T03:59:54.614Z,11.20
2022-08-09T04:02:28.304Z,11.10
2022-08-09T04:05:06.767Z,11.00
2022-08-09T04:07:53.581Z,10.90
2022-08-09T04:10:29.501Z,10.90
2022-08-09T04:13:04.105Z,10.90
2022-08-09T04:16:17.327Z,10.80
2022-08-09T04:18:21.309Z,10.80
2022-08-09T04:20:51.269Z,10.80
2022-08-09T04:23:23.481Z,10.80
2022-08-09T04:25:53.036Z,10.80
2022-08-09T04:28:30.818Z,10.90
2022-08-09T04:31:09.269Z,10.90
2022-08-09T04:33:52.497Z,10.90
2022-08-09T04:36:30.277Z,11.00
2022-08-09T04:39:05.287Z,11.10
2022-08-09T04:41:43.433Z,11.30
2022-08-09T04:44:14.732Z,11.40
2022-08-09T04:46:58.079Z,11.50
2022-08-09T04:49:53.736Z,11.60
2022-08-09T04:52:26.240Z,11.70
2022-08-09T04:54:56.176Z,11.80
2022-08-09T04:57:25.124Z,11.90
2022-08-09T04:59:54.772Z,11.90
2022-08-09T05:02:27.091Z,11.90
2022-08-09T05:04:56.253Z,12.00
2022-08-09T05:07:25.158Z,12.00
2022-08-09T05:09:57.961Z,12.10
2022-08-09T05:12:31.055Z,12.20
2022-08-09T05:14:58.840Z,12.40
2022-08-09T05:18:50.899Z,12.50
2022-08-09T05:20:15.806Z,12.70
2022-08-09T05:25:32.660Z,13.30
2022-08-09T05:28:00.685Z,13.60
2022-08-09T05:37:59.772Z,14.70
2022-08-09T05:45:25.967Z,15.40
2022-08-09T05:48:13.579Z,15.60
2022-08-09T05:50:51.171Z,15.80
2022-08-09T06:18:46.860Z,17.00
2022-08-09T06:21:16.303Z,17.10
2022-08-09T06:23:57.843Z,17.30
2022-08-09T06:26:29.129Z,17.40
2022-08-09T06:29:00.770Z,17.60
2022-08-09T06:31:40.633Z,17.70
2022-08-09T06:34:23.399Z,17.90
2022-08-09T06:36:57.289Z,18.00
2022-08-09T06:39:49.338Z,18.20
2022-08-09T06:44:59.099Z,18.40
2022-08-09T06:47:30.217Z,18.60
2022-08-09T06:50:14.703Z,18.80
2022-08-09T06:52:48.801Z,19.10
2022-08-09T06:55:23.167Z,19.30
2022-08-09T06:58:03.624Z,19.40
2022-08-09T07:00:55.528Z,19.40
2022-08-09T07:03:28.050Z,19.50
2022-08-09T07:06:04.740Z,19.70
2022-08-09T07:08:37.112Z,19.80
2022-08-09T07:11:08.359Z,20.00
2022-08-09T07:13:45.170Z,20.10
2022-08-09T07:16:41.708Z,20.30
2022-08-09T07:51:09.935Z,22.90
2022-08-09T07:54:05.190Z,23.10
2022-08-09T07:56:36.973Z,23.40
2022-08-09T07:59:16.019Z,23.70
2022-08-09T08:02:01.236Z,23.90
2022-08-09T08:04:32.330Z,24.10
2022-08-09T08:07:15.417Z,24.10
2022-08-09T08:15:14.430Z,24.70
2022-08-09T08:17:54.927Z,24.80
2022-08-09T08:20:32.792Z,25.00
2022-08-09T08:23:16.868Z,25.10
2022-08-09T08:25:50.176Z,25.30
2022-08-09T08:31:10.642Z,25.90
2022-08-09T08:33:53.081Z,26.00
2022-08-09T08:36:28.860Z,26.20
2022-08-09T08:38:58.434Z,26.20
2022-08-09T08:41:42.099Z,26.40
2022-08-09T08:44:27.191Z,26.60
2022-08-09T08:47:02.250Z,26.90
2022-08-09T08:49:47.250Z,27.00
2022-08-09T08:55:23.137Z,27.50
2022-08-09T08:57:57.326Z,27.60
2022-08-09T09:00:30.467Z,27.80
2022-08-09T09:03:08.357Z,28.10
2022-08-09T09:06:00.149Z,28.50
2022-08-09T09:08:38.158Z,28.70
2022-08-09T09:11:13.866Z,29.00
2022-08-09T09:13:56.328Z,29.30
2022-08-09T09:16:33.916Z,29.60
2022-08-09T09:19:40.674Z,29.90
2022-08-09T09:22:11.483Z,29.90
2022-08-09T09:24:44.017Z,30.20
2022-08-09T09:28:03.748Z,30.30
2022-08-09T09:30:39.979Z,30.50
2022-08-09T09:33:15.447Z,30.70
2022-08-09T09:36:02.679Z,30.90
2022-08-09T09:38:52.621Z,31.10
2022-08-09T09:41:28.049Z,30.90
2022-08-09T09:44:11.927Z,30.80
2022-08-09T09:46:50.773Z,30.60
2022-08-09T09:49:32.257Z,30.80
2022-08-09T09:52:35.687Z,31.10
2022-08-09T09:55:27.524Z,31.20
2022-08-09T09:58:15.543Z,31.20
2022-08-09T10:01:03.218Z,31.30
2022-08-09T10:03:39.709Z,31.50
2022-08-09T10:08:44.268Z,32.30
2022-08-09T10:12:01.277Z,32.70
2022-08-09T10:14:33.394Z,32.50
2022-08-09T10:17:39.554Z,33.00
2022-08-09T10:20:04.251Z,33.30
2022-08-09T10:22:41.076Z,33.50
2022-08-09T10:25:14.226Z,33.60
2022-08-09T10:27:57.845Z,33.30
2022-08-09T10:32:03.835Z,33.00
2022-08-09T10:34:07.862Z,33.30
2022-08-09T10:36:11.628Z,33.80
2022-08-09T10:41:28.360Z,34.40
2022-08-09T10:44:00.960Z,34.40
2022-08-09T10:47:04.030Z,34.40
2022-08-09T10:50:04.673Z,34.00
2022-08-09T10:53:26.859Z,33.60
2022-08-09T10:58:55.951Z,34.10
2022-08-09T11:03:13.616Z,34.30
2022-08-09T11:07:00.030Z,34.90
2022-08-09T11:09:47.883Z,35.00
2022-08-09T11:12:18.902Z,34.70
2022-08-09T11:15:19.087Z,34.40
2022-08-09T11:17:53.675Z,33.90
2022-08-09T11:20:50.098Z,33.60
2022-08-09T11:23:23.789Z,33.50
2022-08-09T11:25:54.881Z,33.50
2022-08-09T11:28:30.729Z,33.60
2022-08-09T11:31:50.316Z,33.90
2022-08-09T11:34:51.621Z,34.50
2022-08-09T11:37:40.730Z,34.90
2022-08-09T11:40:13.088Z,35.30
2022-08-09T11:42:51.739Z,35.60
2022-08-09T11:45:42.219Z,35.60
2022-08-09T11:48:26.976Z,35.20
2022-08-09T11:52:48.842Z,35.30
2022-08-09T11:54:01.210Z,35.70
2022-08-09T11:56:41.752Z,36.00
2022-08-09T11:59:12.418Z,36.10
2022-08-09T12:02:34.657Z,36.00
2022-08-09T12:04:38.076Z,35.70
2022-08-09T12:07:08.341Z,35.70
2022-08-09T12:09:36.662Z,35.70
2022-08-09T12:12:28.825Z,35.70
2022-08-09T12:17:44.454Z,35.20
2022-08-09T12:20:34.608Z,35.30
2022-08-09T12:23:04.758Z,35.40
2022-08-09T12:25:37.563Z,35.80
2022-08-09T12:28:58.183Z,35.60
2022-08-09T12:31:59.181Z,35.80
2022-08-09T12:34:38.805Z,35.60
2022-08-09T12:37:23.507Z,35.50
2022-08-09T12:40:08.870Z,35.90
2022-08-09T12:42:37.483Z,35.90
2022-08-09T12:45:32.251Z,36.10
2022-08-09T12:47:54.754Z,36.40
2022-08-09T12:50:23.763Z,36.40
2022-08-09T12:53:18.082Z,35.80
2022-08-09T12:56:14.738Z,35.10
2022-08-09T12:58:28.904Z,34.70
2022-08-09T13:00:57.661Z,33.90
2022-08-09T13:03:57.097Z,33.80
2022-08-09T13:06:36.669Z,33.90
2022-08-09T13:09:25.974Z,33.90
2022-08-09T13:12:06.437Z,34.10
2022-08-09T13:14:43.717Z,34.60
2022-08-09T13:17:44.056Z,35.00
2022-08-09T13:28:34.117Z,37.20
2022-08-09T13:33:54.170Z,37.40
2022-08-09T13:41:17.736Z,36.80
2022-08-09T13:42:12.985Z,36.70
2022-08-09T13:44:43.211Z,36.80
2022-08-09T13:47:33.000Z,37.10
2022-08-09T13:50:12.504Z,37.00
2022-08-09T13:55:13.432Z,37.00
2022-08-09T13:57:55.878Z,37.20
2022-08-09T14:00:28.550Z,37.30
2022-08-09T14:03:16.821Z,37.50
2022-08-09T14:05:58.821Z,37.30
2022-08-09T14:08:33.011Z,37.10
2022-08-09T14:11:01.338Z,37.40
2022-08-09T14:14:23.195Z,37.40
2022-08-09T14:16:28.197Z,36.90
2022-08-09T14:18:58.466Z,37.00
2022-08-09T14:21:29.136Z,37.50
2022-08-09T14:24:00.999Z,37.60
2022-08-09T14:26:34.178Z,37.70
2022-08-09T14:29:07.382Z,37.60
2022-08-09T14:31:50.175Z,37.50
2022-08-09T14:34:32.392Z,37.40
2022-08-09T14:37:07.560Z,37.30
2022-08-09T14:39:46.815Z,37.20
2022-08-09T14:42:31.647Z,37.00
2022-08-09T14:46:46.037Z,36.60
2022-08-09T14:48:02.102Z,36.50
2022-08-09T14:50:34.550Z,36.50
2022-08-09T14:53:12.058Z,36.50
2022-08-09T14:55:47.846Z,36.20
2022-08-09T14:58:18.689Z,36.00
2022-08-09T15:00:48.207Z,35.90
2022-08-09T15:03:20.137Z,35.70
2022-08-09T15:05:50.302Z,35.30
2022-08-09T15:08:23.846Z,35.10
2022-08-09T15:11:01.092Z,35.00
2022-08-09T15:13:48.305Z,34.90
2022-08-09T15:16:17.790Z,34.80
2022-08-09T15:18:48.989Z,34.70
2022-08-09T15:21:56.132Z,34.60
2022-08-09T15:24:12.555Z,34.50
2022-08-09T15:26:46.378Z,34.40
2022-08-09T15:30:56.218Z,34.30
2022-08-09T15:32:04.113Z,34.00
2022-08-09T15:34:35.384Z,33.70
2022-08-09T15:37:38.000Z,33.70
2022-08-09T15:40:16.028Z,33.50
2022-08-09T15:42:50.722Z,33.40
2022-08-09T15:45:29.740Z,33.20
2022-08-09T15:48:05.480Z,32.90
2022-08-09T15:50:46.110Z,32.80
2022-08-09T15:53:18.843Z,32.50
2022-08-09T15:56:21.487Z,32.40
2022-08-09T15:58:49.882Z,32.30
2022-08-09T16:01:18.890Z,32.00
2022-08-09T16:03:47.170Z,31.70
2022-08-09T16:06:32.661Z,31.50
2022-08-09T16:09:05.788Z,31.10
2022-08-09T16:11:34.081Z,30.90
2022-08-09T16:14:06.831Z,30.70
2022-08-09T16:16:37.908Z,30.40
2022-08-09T16:19:08.041Z,30.30
2022-08-09T16:21:38.426Z,30.10
2022-08-09T16:24:13.022Z,29.90
2022-08-09T16:26:55.200Z,29.80
2022-08-09T16:29:37.671Z,29.60
2022-08-09T16:32:33.451Z,29.40
2022-08-09T16:35:00.006Z,29.20
2022-08-09T16:37:54.550Z,29.10
2022-08-09T16:40:29.727Z,29.00
2022-08-09T16:43:07.993Z,29.00
2022-08-09T16:45:43.786Z,28.90
2022-08-09T16:48:42.025Z,28.80
2022-08-09T16:51:08.374Z,28.80
2022-08-09T16:54:25.135Z,28.70
2022-08-09T16:56:33.816Z,28.60
2022-08-09T16:59:06.507Z,28.50
2022-08-09T17:01:38.797Z,28.40
2022-08-09T17:04:06.884Z,28.40
2022-08-09T17:08:41.302Z,28.40
2022-08-09T17:09:44.549Z,28.30
2022-08-09T17:12:10.279Z,28.30
2022-08-09T17:14:37.641Z,28.30
2022-08-09T17:17:17.253Z,28.20
2022-08-09T17:20:30.413Z,28.10
2022-08-09T17:22:49.924Z,28.00
2022-08-09T17:25:21.982Z,27.90
2022-08-09T17:27:55.657Z,27.80
2022-08-09T17:30:29.096Z,27.70
2022-08-09T17:33:05.619Z,27.60
2022-08-09T17:35:50.757Z,27.50
2022-08-09T17:38:30.789Z,27.40
2022-08-09T17:41:03.293Z,27.30
2022-08-09T17:43:35.801Z,27.20
2022-08-09T17:46:09.757Z,27.10
2022-08-09T17:48:52.169Z,27.00
2022-08-09T17:51:22.023Z,26.90
2022-08-09T17:53:55.071Z,26.80
2022-08-09T17:56:28.907Z,26.70
2022-08-09T17:59:03.287Z,26.60
2022-08-09T18:01:57.951Z,26.50
2022-08-09T18:04:25.713Z,26.40
2022-08-09T18:06:55.285Z,26.30
2022-08-09T18:09:40.431Z,26.20
2022-08-09T18:12:20.066Z,26.10
2022-08-09T18:14:55.012Z,25.90
2022-08-09T18:18:03.308Z,25.90
2022-08-09T18:20:56.855Z,25.70
2022-08-09T18:23:07.185Z,25.70
2022-08-09T18:25:50.509Z,25.50
2022-08-09T18:30:35.021Z,25.40
2022-08-09T18:31:08.429Z,25.20
2022-08-09T18:33:36.529Z,25.10
2022-08-09T18:36:04.539Z,24.90
2022-08-09T18:38:32.196Z,24.80
2022-08-09T18:40:59.929Z,24.60
2022-08-09T18:43:28.270Z,24.40
2022-08-09T18:46:49.768Z,24.30
2022-08-09T18:48:52.640Z,24.10
2022-08-09T18:51:20.749Z,24.00
2022-08-09T18:54:08.634Z,23.90
2022-08-09T18:56:45.544Z,23.80
2022-08-09T18:59:22.642Z,23.70
2022-08-09T19:01:55.334Z,23.60
2022-08-09T19:04:34.653Z,23.50
2022-08-09T19:07:02.932Z,23.40
2022-08-09T19:10:13.265Z,23.30
2022-08-09T19:12:21.713Z,23.10
2022-08-09T19:14:51.882Z,23.00
2022-08-09T19:17:21.026Z,22.90
2022-08-09T19:19:49.280Z,22.80
2022-08-09T19:22:26.627Z,22.80
2022-08-09T19:25:11.557Z,22.70
2022-08-09T19:27:42.392Z,22.60
2022-08-09T19:30:22.911Z,22.50
2022-08-09T19:32:56.057Z,22.50
2022-08-09T19:35:26.721Z,22.40
2022-08-09T19:37:57.700Z,22.30
2022-08-09T19:40:34.220Z,22.20
2022-08-09T19:43:05.215Z,22.10
2022-08-09T19:45:40.298Z,21.90
2022-08-09T19:48:10.733Z,21.80
2022-08-09T19:50:50.273Z,21.70
2022-08-09T19:53:20.677Z,21.60
2022-08-09T19:56:02.470Z,21.50
2022-08-09T19:58:34.101Z,21.40
2022-08-09T20:01:02.057Z,21.30
2022-08-09T20:04:18.421Z,21.20
2022-08-09T20:06:22.937Z,21.10
2022-08-09T20:08:56.538Z,21.00
2022-08-09T20:11:27.157Z,20.70
2022-08-09T20:14:15.260Z,20.50
2022-08-09T20:16:54.168Z,20.10
2022-08-09T20:19:48.455Z,19.80
2022-08-09T20:22:14.157Z,19.60
2022-08-09T20:24:43.106Z,19.20
2022-08-09T20:27:22.311Z,19.00
2022-08-09T20:29:50.046Z,18.90
2022-08-09T20:32:30.414Z,18.70
2022-08-09T20:35:01.674Z,18.60
2022-08-09T20:37:37.812Z,18.40
2022-08-09T20:40:26.571Z,18.30
2022-08-09T20:43:00.087Z,18.20
2022-08-09T20:46:00.611Z,18.00
2022-08-09T20:48:32.715Z,17.90
2022-08-09T20:51:02.915Z,17.80
2022-08-09T20:53:37.678Z,17.70
2022-08-09T20:56:21.202Z,17.70
2022-08-09T20:58:54.598Z,17.60
2022-08-09T21:01:34.034Z,17.60
2022-08-09T21:05:54.868Z,17.60
2022-08-09T21:07:12.043Z,17.60
2022-08-09T21:09:56.550Z,17.50
2022-08-09T21:12:32.315Z,17.40
2022-08-09T21:15:03.003Z,17.30
2022-08-09T21:18:11.062Z,17.20
2022-08-09T21:20:25.782Z,17.00
2022-08-09T21:22:54.836Z,16.90
2022-08-09T21:25:44.015Z,16.80
2022-08-09T21:28:36.517Z,16.80
2022-08-09T21:31:17.556Z,16.80
2022-08-09T21:33:52.776Z,16.70
2022-08-09T21:36:28.852Z,16.70
2022-08-09T21:38:59.612Z,16.70
2022-08-09T21:42:03.445Z,16.60
2022-08-09T21:44:34.006Z,16.50
2022-08-09T21:47:17.556Z,16.30
2022-08-09T21:49:48.320Z,16.10
2022-08-09T21:52:20.879Z,16.00
2022-08-09T21:55:03.615Z,15.90
2022-08-09T21:57:58.741Z,15.80
2022-08-09T22:00:33.865Z,15.80
2022-08-09T22:03:19.179Z,15.70
2022-08-09T22:05:54.105Z,15.60
2022-08-09T22:08:25.860Z,15.50
2022-08-09T22:11:49.237Z,15.50
2022-08-09T22:13:43.971Z,15.40
2022-08-09T22:16:12.247Z,15.40
2022-08-09T22:18:52.204Z,15.30
2022-08-09T22:21:27.455Z,15.20
2022-08-09T22:24:17.239Z,15.30
2022-08-09T22:26:51.432Z,15.30
2022-08-09T22:29:28.845Z,15.30
2022-08-09T22:32:07.091Z,15.20
2022-08-09T22:35:02.489Z,15.10
2022-08-09T22:37:40.458Z,15.00
2022-08-09T22:40:19.966Z,14.90
2022-08-09T22:42:48.255Z,14.70
2022-08-09T22:48:10.618Z,14.60
2022-08-09T22:48:11.358Z,14.50
2022-08-09T22:50:52.847Z,14.40
2022-08-09T22:53:20.999Z,14.30
2022-08-09T22:56:29.999Z,14.20
2022-08-09T22:58:40.780Z,14.10
2022-08-09T23:01:10.061Z,14.00
2022-08-09T23:04:03.935Z,13.90
2022-08-09T23:06:35.689Z,13.80
2022-08-09T23:09:06.506Z,13.80
2022-08-09T23:11:34.238Z,13.80
2022-08-09T23:14:03.205Z,13.80
2022-08-09T23:16:32.006Z,13.80
2022-08-09T23:18:59.940Z,13.80
2022-08-09T23:21:32.760Z,13.80
2022-08-09T23:24:06.574Z,13.70
2022-08-09T23:26:38.985Z,13.70
2022-08-09T23:29:11.641Z,13.60
2022-08-09T23:31:40.234Z,13.50
2022-08-09T23:34:08.347Z,13.40
2022-08-09T23:36:36.951Z,13.40
2022-08-09T23:39:07.236Z,13.40
2022-08-09T23:41:35.747Z,13.40
2022-08-09T23:44:04.261Z,13.30
2022-08-09T23:46:32.853Z,13.30
2022-08-09T23:49:01.234Z,13.30
2022-08-09T23:51:32.305Z,13.20
2022-08-09T23:54:02.434Z,13.20
2022-08-09T23:56:53.378Z,13.10
2022-08-09T23:59:24.197Z,13.10
